Terminal Aerodrome Forecast
Issued by NWS

Home | Current Version | Previous Version | Text Only | Print | Product List | Glossary On
Versions: 1 2 3 4 5 6 7 8 9 10 11 12 13 14 15 16 17
000
FTUS43 KAPX 211720
TAFTVC
TAF
KTVC 211720Z 2118/2218 29016G26KT P6SM OVC040
     FM212000 29015G25KT P6SM -SHRASN OVC040
     FM212200 30014G24KT 6SM -SHSN OVC035
     FM220300 32011G18KT 6SM -SHSN OVC035
     FM221000 31009KT P6SM VCSH BKN035
     FM221500 28006KT P6SM BKN035=

USA.gov is the U.S. government's official web portal to all federal, state and local government web resources and services.